Time;durP1;ratioP1;P1;durP2;ratioP2;P2;SDS_P1;SDS_P2;PMS_P1;PMS_P2;Temp;Humidity;BMP_temperature;BMP_pressure;BME280_temperature;BME280_humidity;BME280_pressure;Samples;Min_cycle;Max_cycle;Signal;HPM_P1;HPM_P2
2022/04/09 00:01:34;;;;;;;11.80;2.83;;;8.30;65.40;;;;;;5055488;28;20033;-63
2022/04/09 00:04:00;;;;;;;15.57;3.75;;;8.30;65.50;;;;;;5057093;28;20036;-63
2022/04/09 00:06:25;;;;;;;8.90;3.15;;;8.30;65.60;;;;;;5073232;28;20025;-63
2022/04/09 00:08:51;;;;;;;10.70;2.72;;;8.30;65.50;;;;;;5064055;28;20079;-64
2022/04/09 00:11:16;;;;;;;9.02;2.20;;;8.30;65.50;;;;;;5057108;28;20063;-63
2022/04/09 00:13:42;;;;;;;10.80;2.60;;;8.30;65.50;;;;;;5063789;28;20466;-64
2022/04/09 00:16:08;;;;;;;10.43;2.58;;;8.30;65.60;;;;;;5055956;28;20028;-63
2022/04/09 00:18:33;;;;;;;12.55;2.72;;;8.30;65.50;;;;;;5054643;28;20488;-63
2022/04/09 00:20:59;;;;;;;11.50;2.45;;;8.30;65.50;;;;;;5057809;28;20017;-63
2022/04/09 00:23:24;;;;;;;11.55;2.33;;;8.30;66.10;;;;;;5055953;28;20369;-63
2022/04/09 00:25:51;;;;;;;12.57;2.63;;;8.30;65.40;;;;;;5074754;28;20158;-63
2022/04/09 00:28:16;;;;;;;12.25;2.45;;;8.30;65.30;;;;;;5062541;28;20039;-63
2022/04/09 00:30:42;;;;;;;9.82;2.90;;;8.30;65.40;;;;;;5059445;28;20037;-63
2022/04/09 00:33:08;;;;;;;9.75;2.63;;;8.30;65.40;;;;;;5061094;28;20052;-63
2022/04/09 00:35:33;;;;;;;13.18;2.25;;;8.30;65.50;;;;;;5059788;28;20419;-63
2022/04/09 00:37:59;;;;;;;10.30;2.67;;;8.30;65.50;;;;;;5055324;28;20095;-63
2022/04/09 00:40:25;;;;;;;8.07;2.30;;;8.30;65.50;;;;;;5055404;28;20445;-63
2022/04/09 00:42:51;;;;;;;8.07;1.90;;;8.20;65.50;;;;;;5055603;28;20021;-63
2022/04/09 00:45:17;;;;;;;12.75;3.05;;;8.20;65.50;;;;;;5057013;28;20094;-63
2022/04/09 00:47:43;;;;;;;6.78;2.28;;;8.20;65.50;;;;;;5054158;28;20017;-63
2022/04/09 00:50:10;;;;;;;9.40;2.20;;;8.20;65.50;;;;;;5055587;28;20029;-63
2022/04/09 00:52:40;;;;;;;9.77;2.90;;;8.20;65.60;;;;;;5053986;28;20025;-63
2022/04/09 00:55:07;;;;;;;12.38;2.40;;;8.30;65.70;;;;;;5063897;28;20110;-63
2022/04/09 00:57:34;;;;;;;9.18;2.83;;;8.20;65.70;;;;;;5064067;28;20465;-64
2022/04/09 01:00:09;;;;;;;9.13;2.50;;;8.30;65.90;;;;;;5061448;28;20024;-63
2022/04/09 01:02:39;;;;;;;10.57;2.80;;;8.20;66.00;;;;;;5068131;28;20095;-63
2022/04/09 01:05:05;;;;;;;12.23;2.90;;;8.20;66.20;;;;;;5055536;28;20025;-63
2022/04/09 01:07:32;;;;;;;7.80;2.47;;;8.20;66.30;;;;;;5053992;28;20028;-63
2022/04/09 01:09:58;;;;;;;7.72;2.33;;;8.20;66.30;;;;;;5055324;28;20048;-63
2022/04/09 01:12:24;;;;;;;9.63;2.58;;;8.10;66.40;;;;;;5037443;28;20032;-64
2022/04/09 01:14:50;;;;;;;9.10;2.47;;;8.10;66.50;;;;;;5058591;28;20021;-63
2022/04/09 01:17:16;;;;;;;8.70;1.92;;;8.10;66.60;;;;;;5058729;28;20031;-63
2022/04/09 01:19:42;;;;;;;5.82;1.90;;;8.10;66.70;;;;;;5055996;28;20029;-63
2022/04/09 01:22:07;;;;;;;10.63;2.65;;;8.00;66.60;;;;;;5075482;28;20035;-63
2022/04/09 01:24:33;;;;;;;7.55;2.22;;;8.00;66.60;;;;;;5054645;28;20128;-63
2022/04/09 01:27:00;;;;;;;11.50;2.65;;;8.00;66.60;;;;;;5073944;28;20044;-63
2022/04/09 01:29:30;;;;;;;8.13;2.10;;;8.10;66.70;;;;;;5054951;28;20021;-63
2022/04/09 01:31:56;;;;;;;9.55;2.33;;;8.00;66.60;;;;;;5061366;28;20051;-63
2022/04/09 01:34:22;;;;;;;9.23;2.22;;;8.00;66.60;;;;;;5056956;28;20025;-63
2022/04/09 01:36:48;;;;;;;10.18;2.50;;;8.00;66.70;;;;;;5071024;28;20032;-63
2022/04/09 01:39:17;;;;;;;10.40;2.42;;;7.90;66.60;;;;;;5057457;28;20160;-63
2022/04/09 01:41:45;;;;;;;9.75;2.13;;;7.90;66.70;;;;;;5068630;28;20056;-63
2022/04/09 01:44:10;;;;;;;9.90;2.30;;;7.90;66.70;;;;;;5059949;28;20108;-63
2022/04/09 01:46:37;;;;;;;7.97;2.10;;;7.90;66.70;;;;;;5066157;28;20174;-63
2022/04/09 01:49:04;;;;;;;8.25;2.08;;;7.90;66.70;;;;;;5054929;28;20499;-63
2022/04/09 01:51:29;;;;;;;9.68;2.63;;;7.90;66.70;;;;;;5020617;28;20133;-63
2022/04/09 01:53:55;;;;;;;9.30;2.05;;;7.90;66.70;;;;;;5053597;28;20021;-63
2022/04/09 01:56:21;;;;;;;10.68;2.22;;;7.90;66.70;;;;;;5062112;28;20531;-63
2022/04/09 01:58:48;;;;;;;7.90;1.63;;;7.90;66.70;;;;;;5065138;28;20089;-64
2022/04/09 02:01:18;;;;;;;10.65;2.13;;;7.90;66.70;;;;;;5058732;28;20029;-63
2022/04/09 02:03:44;;;;;;;10.27;2.42;;;7.90;66.60;;;;;;5053403;28;20077;-63
2022/04/09 02:06:11;;;;;;;10.45;2.35;;;7.90;66.50;;;;;;5062465;28;20426;-63
2022/04/09 02:08:37;;;;;;;10.27;2.47;;;7.90;66.40;;;;;;5065045;28;20116;-63
2022/04/09 02:11:04;;;;;;;8.48;2.33;;;7.90;66.40;;;;;;5057420;28;20033;-63
2022/04/09 02:13:30;;;;;;;9.60;2.20;;;7.90;66.40;;;;;;5064855;28;20112;-64
2022/04/09 02:15:56;;;;;;;10.13;2.28;;;7.90;66.40;;;;;;5034821;28;20025;-64
2022/04/09 02:18:27;;;;;;;6.85;2.30;;;7.90;66.30;;;;;;5037159;28;20553;-63
2022/04/09 02:20:54;;;;;;;10.90;2.40;;;7.90;66.30;;;;;;5053477;28;20087;-63
2022/04/09 02:23:20;;;;;;;9.18;2.13;;;7.90;66.20;;;;;;5054036;28;20033;-64
2022/04/09 02:25:46;;;;;;;8.65;1.77;;;7.90;66.30;;;;;;5054505;28;20108;-63
2022/04/09 02:28:11;;;;;;;10.02;2.10;;;7.90;66.20;;;;;;5052932;28;20025;-64
2022/04/09 02:30:37;;;;;;;10.43;2.42;;;7.90;66.20;;;;;;5052643;28;20071;-64
2022/04/09 02:33:04;;;;;;;11.40;1.80;;;7.90;66.30;;;;;;5055591;28;20049;-63
2022/04/09 02:35:35;;;;;;;9.93;2.42;;;7.90;66.30;;;;;;5053374;28;20028;-63
2022/04/09 02:38:02;;;;;;;9.70;2.25;;;7.90;66.40;;;;;;5056754;28;20454;-63
2022/04/09 02:40:30;;;;;;;6.78;1.70;;;7.90;66.40;;;;;;5053279;28;20036;-63
2022/04/09 02:42:56;;;;;;;6.00;1.92;;;7.90;66.40;;;;;;5060056;28;20017;-64
2022/04/09 02:45:23;;;;;;;7.70;1.50;;;7.90;66.40;;;;;;5052781;28;20399;-64
2022/04/09 02:47:49;;;;;;;5.55;1.58;;;7.90;66.40;;;;;;5066715;28;20028;-63
2022/04/09 02:50:19;;;;;;;7.47;2.05;;;8.00;66.30;;;;;;5052407;28;20068;-64
2022/04/09 02:52:46;;;;;;;7.80;1.63;;;8.00;66.20;;;;;;5063918;28;20021;-63
2022/04/09 02:55:13;;;;;;;7.05;1.73;;;7.90;66.20;;;;;;5058212;28;20396;-64
2022/04/09 02:57:40;;;;;;;8.82;1.52;;;8.00;66.20;;;;;;5057783;28;20052;-63
2022/04/09 03:00:11;;;;;;;6.25;1.48;;;7.90;66.20;;;;;;5055980;28;20029;-63
2022/04/09 03:02:41;;;;;;;6.65;1.90;;;7.90;66.20;;;;;;5063093;28;20091;-64
2022/04/09 03:05:13;;;;;;;6.05;1.80;;;8.00;66.20;;;;;;5057286;28;20315;-64
2022/04/09 03:07:39;;;;;;;7.03;2.15;;;8.00;66.20;;;;;;5069473;28;20440;-63
2022/04/09 03:10:05;;;;;;;11.57;2.20;;;7.90;66.20;;;;;;5062527;28;20033;-63
2022/04/09 03:12:31;;;;;;;4.80;1.20;;;7.90;66.20;;;;;;5062434;28;20086;-64
2022/04/09 03:14:57;;;;;;;8.75;1.77;;;7.90;66.30;;;;;;5068199;28;20028;-63
2022/04/09 03:17:22;;;;;;;9.82;1.85;;;7.90;66.40;;;;;;5064454;28;20032;-63
2022/04/09 03:19:48;;;;;;;6.07;1.38;;;7.90;66.40;;;;;;5063723;28;20057;-64
2022/04/09 03:22:14;;;;;;;8.88;2.10;;;7.90;66.40;;;;;;5063975;28;20024;-64
2022/04/09 03:24:42;;;;;;;7.80;2.22;;;7.90;66.40;;;;;;5063052;28;20139;-64
2022/04/09 03:27:10;;;;;;;7.50;1.60;;;7.80;66.50;;;;;;5071317;28;20044;-64
2022/04/09 03:29:37;;;;;;;4.47;1.30;;;7.80;66.60;;;;;;5046224;28;20377;-64
2022/04/09 03:32:04;;;;;;;6.70;1.77;;;7.80;66.70;;;;;;5055965;28;20057;-64
2022/04/09 03:34:33;;;;;;;4.57;1.40;;;7.80;66.80;;;;;;5068538;28;20137;-64
2022/04/09 03:37:00;;;;;;;5.90;1.50;;;7.80;66.90;;;;;;5074642;28;20059;-64
2022/04/09 03:39:27;;;;;;;8.57;1.73;;;7.80;66.90;;;;;;5066456;28;20025;-64
2022/04/09 03:41:53;;;;;;;6.82;1.70;;;7.80;67.00;;;;;;5056962;28;20033;-64
2022/04/09 03:44:19;;;;;;;12.18;2.35;;;7.80;66.90;;;;;;5075483;28;20432;-64
2022/04/09 03:46:48;;;;;;;10.40;2.10;;;7.80;66.90;;;;;;5056315;28;20021;-64
2022/04/09 03:49:17;;;;;;;8.65;2.20;;;7.80;67.00;;;;;;5055449;28;20342;-64
2022/04/09 03:51:44;;;;;;;6.47;1.55;;;7.80;67.00;;;;;;5055354;28;20044;-64
2022/04/09 03:54:11;;;;;;;5.70;1.58;;;7.80;67.00;;;;;;5061542;28;20025;-64
2022/04/09 03:56:40;;;;;;;8.68;1.70;;;7.80;66.90;;;;;;5056843;28;20021;-64
2022/04/09 03:59:06;;;;;;;6.38;1.45;;;7.80;66.90;;;;;;5073831;28;20035;-64
2022/04/09 04:01:32;;;;;;;6.32;1.73;;;7.80;67.00;;;;;;5068465;28;20111;-64
2022/04/09 04:04:05;;;;;;;5.22;1.75;;;7.80;67.00;;;;;;5058519;28;20083;-64
2022/04/09 04:06:31;;;;;;;5.25;1.33;;;7.80;67.00;;;;;;5067447;28;20368;-64
2022/04/09 04:08:58;;;;;;;9.65;2.08;;;7.80;67.10;;;;;;5059275;28;20021;-64
2022/04/09 04:11:24;;;;;;;10.60;1.67;;;7.80;67.10;;;;;;5054726;28;20025;-64
2022/04/09 04:13:51;;;;;;;7.63;1.58;;;7.80;67.10;;;;;;5048384;28;20382;-64
2022/04/09 04:16:17;;;;;;;7.40;1.65;;;7.80;67.10;;;;;;5074775;28;20043;-64
2022/04/09 04:18:44;;;;;;;8.60;1.85;;;7.80;67.10;;;;;;5052872;28;20145;-64
2022/04/09 04:21:10;;;;;;;9.57;2.30;;;7.80;67.80;;;;;;5049747;28;20037;-64
2022/04/09 04:23:38;;;;;;;7.80;2.38;;;7.70;67.20;;;;;;5045833;28;20048;-64
2022/04/09 04:26:15;;;;;;;8.32;1.98;;;7.70;67.20;;;;;;5055523;28;20032;-64
2022/04/09 04:28:41;;;;;;;8.10;1.90;;;7.70;67.30;;;;;;5054970;28;20057;-64
2022/04/09 04:31:08;;;;;;;8.98;1.80;;;7.70;67.40;;;;;;5055390;28;20060;-65
2022/04/09 04:33:36;;;;;;;10.80;1.77;;;7.70;67.30;;;;;;5074685;28;20479;-64
2022/04/09 04:36:02;;;;;;;11.57;2.10;;;7.70;67.30;;;;;;5063375;28;20032;-64
2022/04/09 04:38:32;;;;;;;7.30;1.80;;;7.80;67.40;;;;;;5038355;28;20091;-64
2022/04/09 04:41:00;;;;;;;8.35;1.55;;;7.70;67.50;;;;;;5054974;28;20021;-65
2022/04/09 04:43:27;;;;;;;7.90;1.80;;;7.70;67.50;;;;;;5055562;28;20464;-64
2022/04/09 04:45:54;;;;;;;8.32;1.65;;;7.70;67.60;;;;;;5055524;28;20036;-64
2022/04/09 04:48:22;;;;;;;6.60;1.77;;;7.70;67.70;;;;;;5054389;28;20029;-64
2022/04/09 04:50:49;;;;;;;8.45;1.80;;;7.70;67.70;;;;;;5053991;28;20048;-64
2022/04/09 04:53:15;;;;;;;6.88;1.75;;;7.70;67.60;;;;;;5054529;28;20477;-64
2022/04/09 04:55:46;;;;;;;8.32;1.75;;;7.70;67.50;;;;;;5054687;28;20025;-65
2022/04/09 04:58:12;;;;;;;10.93;1.90;;;7.70;67.50;;;;;;5054328;28;20037;-65
2022/04/09 05:00:44;;;;;;;6.72;1.60;;;7.80;67.50;;;;;;5055647;28;20372;-65
2022/04/09 05:03:15;;;;;;;6.38;1.52;;;7.70;67.40;;;;;;5055345;28;20120;-64
2022/04/09 05:05:56;;;;;;;5.40;1.95;;;7.80;67.30;;;;;;5053866;28;20108;-64
2022/04/09 05:08:22;;;;;;;7.35;1.40;;;7.80;67.20;;;;;;5054012;28;20049;-64
2022/04/09 05:10:48;;;;;;;5.80;1.48;;;7.80;67.00;;;;;;5052853;28;20489;-65
2022/04/09 05:13:16;;;;;;;7.63;1.60;;;7.80;66.90;;;;;;5053476;28;20059;-64
2022/04/09 05:15:42;;;;;;;5.07;1.42;;;7.80;66.80;;;;;;5036489;28;20124;-65
2022/04/09 05:18:09;;;;;;;5.90;1.20;;;7.90;66.80;;;;;;5054792;28;20031;-65
2022/04/09 05:20:36;;;;;;;8.32;1.88;;;7.90;66.70;;;;;;5053659;28;20024;-65
2022/04/09 05:23:06;;;;;;;7.40;1.92;;;7.90;66.60;;;;;;5057233;28;20078;-65
2022/04/09 05:25:32;;;;;;;6.18;1.27;;;7.90;66.60;;;;;;5058922;28;20377;-65
2022/04/09 05:28:05;;;;;;;11.32;1.90;;;7.90;66.60;;;;;;5070489;28;21378;-65
2022/04/09 05:30:35;;;;;;;6.20;1.45;;;7.90;66.60;;;;;;5057300;28;20025;-64
2022/04/09 05:33:03;;;;;;;8.38;1.70;;;8.00;66.70;;;;;;5051889;28;20083;-63
2022/04/09 05:35:29;;;;;;;8.07;1.63;;;8.00;66.60;;;;;;5052823;28;20036;-64
2022/04/09 05:37:55;;;;;;;8.15;1.60;;;8.00;66.60;;;;;;5052979;28;20060;-64
2022/04/09 05:40:25;;;;;;;4.63;1.25;;;8.00;66.80;;;;;;5053130;28;20025;-64
2022/04/09 05:42:55;;;;;;;6.97;1.63;;;8.00;66.80;;;;;;5053608;28;20087;-64
2022/04/09 05:45:21;;;;;;;11.25;2.05;;;8.10;66.80;;;;;;5053425;28;20378;-64
2022/04/09 05:47:48;;;;;;;8.93;2.03;;;8.10;67.00;;;;;;5033679;28;20036;-64
2022/04/09 05:50:18;;;;;;;7.18;1.60;;;8.10;66.90;;;;;;5052717;28;20032;-64
2022/04/09 05:52:44;;;;;;;6.18;1.45;;;8.10;67.00;;;;;;5053173;28;20028;-64
2022/04/09 05:55:12;;;;;;;5.80;1.30;;;8.10;67.00;;;;;;5053549;28;20032;-64
2022/04/09 05:57:40;;;;;;;5.65;1.50;;;8.10;67.00;;;;;;5053494;28;20029;-63
2022/04/09 06:00:09;;;;;;;8.75;2.30;;;8.10;67.00;;;;;;5053514;28;20036;-64
2022/04/09 06:02:41;;;;;;;9.00;2.75;;;8.20;67.00;;;;;;5054792;28;20049;-64
2022/04/09 06:05:12;;;;;;;8.00;2.38;;;8.40;66.80;;;;;;5053029;28;20021;-63
2022/04/09 06:07:42;;;;;;;8.27;1.90;;;8.50;66.40;;;;;;5053326;28;20069;-63
2022/04/09 06:10:10;;;;;;;6.80;1.73;;;8.70;66.10;;;;;;5053026;28;20560;-64
2022/04/09 06:12:36;;;;;;;8.20;1.90;;;8.90;65.70;;;;;;5036826;28;20323;-64
2022/04/09 06:15:10;;;;;;;9.35;1.85;;;9.00;65.50;;;;;;5052145;28;20028;-64
2022/04/09 06:17:41;;;;;;;9.52;1.63;;;9.20;65.30;;;;;;5051643;28;20116;-64
2022/04/09 06:20:08;;;;;;;8.40;2.00;;;9.70;64.70;;;;;;5052998;28;20408;-64
2022/04/09 06:22:33;;;;;;;8.80;1.80;;;10.20;63.50;;;;;;5052651;28;20469;-65
2022/04/09 06:25:00;;;;;;;8.95;2.05;;;10.50;62.80;;;;;;5052842;28;20120;-64
2022/04/09 06:27:26;;;;;;;7.30;1.58;;;10.60;62.20;;;;;;5052388;28;20104;-65
2022/04/09 06:29:53;;;;;;;8.45;2.13;;;10.50;62.30;;;;;;5057066;28;20473;-65
2022/04/09 06:32:19;;;;;;;7.53;1.70;;;10.70;62.20;;;;;;5056835;28;20117;-64
2022/04/09 06:34:45;;;;;;;6.30;1.40;;;11.50;60.90;;;;;;5057112;28;20537;-65
2022/04/09 06:37:18;;;;;;;6.00;1.75;;;12.20;59.40;;;;;;5056705;28;20068;-65
2022/04/09 06:39:43;;;;;;;5.43;1.45;;;12.90;58.10;;;;;;5056407;28;20436;-64
2022/04/09 06:42:09;;;;;;;5.45;1.45;;;13.30;57.20;;;;;;5040072;28;20350;-64
2022/04/09 06:44:58;;;;;;;6.50;1.63;;;13.50;56.60;;;;;;5056699;28;20033;-64
2022/04/09 06:47:30;;;;;;;5.20;1.50;;;13.40;56.50;;;;;;5040693;28;20090;-65
2022/04/09 06:50:00;;;;;;;5.78;1.38;;;13.30;56.60;;;;;;5055973;28;20071;-64
2022/04/09 06:52:29;;;;;;;4.78;1.25;;;13.00;56.70;;;;;;5056694;28;20086;-65
2022/04/09 06:55:04;;;;;;;6.75;1.40;;;12.60;57.00;;;;;;5055724;28;20173;-65
2022/04/09 06:57:32;;;;;;;7.32;1.52;;;12.20;57.70;;;;;;5055655;28;20028;-63
2022/04/09 06:59:59;;;;;;;9.13;1.48;;;12.00;58.20;;;;;;5056209;28;20067;-64
2022/04/09 07:02:28;;;;;;;8.38;1.98;;;11.90;58.30;;;;;;5036153;28;20224;-64
2022/04/09 07:04:54;;;;;;;8.07;1.92;;;11.90;58.30;;;;;;5054924;28;20161;-66
2022/04/09 07:07:25;;;;;;;5.32;1.52;;;12.00;58.20;;;;;;5055093;28;20040;-64
2022/04/09 07:09:52;;;;;;;7.60;1.70;;;12.10;57.90;;;;;;5057507;28;20089;-64
2022/04/09 07:12:18;;;;;;;8.82;2.05;;;12.20;57.80;;;;;;5056528;28;20025;-65
2022/04/09 07:14:43;;;;;;;8.02;2.00;;;12.30;57.70;;;;;;5057124;28;20033;-64
2022/04/09 07:17:09;;;;;;;9.50;2.03;;;12.30;57.40;;;;;;5056086;28;20081;-64
2022/04/09 07:19:35;;;;;;;8.13;2.38;;;12.20;57.60;;;;;;5056449;28;20033;-64
2022/04/09 07:22:01;;;;;;;10.65;2.40;;;12.30;57.70;;;;;;5056611;28;20025;-64
2022/04/09 07:24:26;;;;;;;8.52;2.00;;;12.40;57.40;;;;;;5055893;28;20024;-62
2022/04/09 07:26:52;;;;;;;7.25;1.88;;;12.50;57.20;;;;;;5056268;28;20021;-62
2022/04/09 07:29:18;;;;;;;7.32;1.90;;;12.70;57.10;;;;;;5056004;28;20350;-66
2022/04/09 07:31:46;;;;;;;6.38;1.55;;;12.70;56.90;;;;;;5052410;28;20065;-65
2022/04/09 07:34:11;;;;;;;9.98;2.30;;;12.90;56.70;;;;;;5038205;28;20041;-65
2022/04/09 07:36:38;;;;;;;7.38;1.50;;;13.10;56.50;;;;;;5040285;28;20111;-66
2022/04/09 07:39:05;;;;;;;7.95;1.95;;;13.20;56.20;;;;;;5036871;28;20044;-65
2022/04/09 07:41:31;;;;;;;6.90;1.73;;;13.00;56.40;;;;;;5039497;28;20025;-65
2022/04/09 07:43:57;;;;;;;6.70;1.33;;;12.70;56.70;;;;;;5038435;28;20665;-65
2022/04/09 07:46:22;;;;;;;4.75;1.23;;;12.50;57.00;;;;;;5043101;28;20029;-65
2022/04/09 07:48:48;;;;;;;5.97;1.20;;;12.40;57.20;;;;;;5051069;28;20350;-65
2022/04/09 07:51:15;;;;;;;3.92;1.20;;;12.40;57.40;;;;;;5062713;28;20036;-65
2022/04/09 07:53:41;;;;;;;5.50;1.27;;;12.40;57.40;;;;;;5055830;28;20032;-65
2022/04/09 07:56:06;;;;;;;5.18;1.50;;;12.20;57.40;;;;;;5056945;28;20112;-65
2022/04/09 07:58:32;;;;;;;4.18;1.17;;;12.00;57.60;;;;;;5056876;28;20461;-64
2022/04/09 08:00:57;;;;;;;6.28;1.10;;;12.00;57.70;;;;;;5057780;28;20446;-64
2022/04/09 08:03:23;;;;;;;4.47;1.33;;;12.00;57.60;;;;;;5056968;28;20032;-64
2022/04/09 08:05:49;;;;;;;3.28;1.00;;;12.20;57.30;;;;;;5038907;28;20072;-64
2022/04/09 08:08:14;;;;;;;3.78;1.20;;;12.50;56.90;;;;;;5057933;28;20040;-65
2022/04/09 08:10:40;;;;;;;5.57;1.40;;;12.80;56.50;;;;;;5056677;28;20056;-64
2022/04/09 08:13:06;;;;;;;5.28;1.25;;;13.20;55.90;;;;;;5055170;28;20083;-64
2022/04/09 08:15:33;;;;;;;3.95;1.17;;;13.50;55.40;;;;;;5056447;28;20445;-64
2022/04/09 08:17:58;;;;;;;6.45;1.65;;;13.70;54.90;;;;;;5054024;28;20100;-65
2022/04/09 08:20:24;;;;;;;3.83;0.95;;;13.90;54.60;;;;;;5055277;28;20111;-65
2022/04/09 08:22:50;;;;;;;5.47;1.10;;;14.10;54.20;;;;;;5049923;28;20024;-66
2022/04/09 08:25:16;;;;;;;4.68;1.00;;;14.30;53.90;;;;;;5054063;28;20399;-65
2022/04/09 08:27:43;;;;;;;3.45;0.88;;;14.50;53.50;;;;;;5052477;28;20047;-66
2022/04/09 08:30:10;;;;;;;6.97;1.73;;;14.70;53.20;;;;;;5055683;28;20044;-66
2022/04/09 08:32:36;;;;;;;4.15;1.00;;;14.80;52.80;;;;;;5050646;28;20128;-65
2022/04/09 08:35:03;;;;;;;3.78;0.93;;;14.90;52.60;;;;;;5055188;28;20021;-67
2022/04/09 08:37:29;;;;;;;5.32;1.42;;;15.00;52.40;;;;;;5053303;28;20067;-67
2022/04/09 08:39:55;;;;;;;5.82;1.00;;;15.20;52.00;;;;;;5051200;28;20056;-67
2022/04/09 08:42:21;;;;;;;2.63;0.90;;;15.40;51.50;;;;;;5052870;28;20039;-68
2022/04/09 08:44:50;;;;;;;4.57;1.33;;;15.60;51.00;;;;;;5053794;28;20052;-66
2022/04/09 08:47:16;;;;;;;5.35;1.27;;;15.70;50.20;;;;;;5053636;28;20033;-65
2022/04/09 08:49:46;;;;;;;6.97;1.38;;;15.20;50.50;;;;;;5057546;28;20050;-65
2022/04/09 08:52:13;;;;;;;5.68;1.08;;;14.60;51.50;;;;;;5068653;28;20075;-65
2022/04/09 08:54:41;;;;;;;3.45;0.90;;;14.00;52.30;;;;;;5054406;28;20032;-65
2022/04/09 08:57:06;;;;;;;6.38;1.38;;;13.50;53.00;;;;;;5054382;28;20041;-65
2022/04/09 08:59:32;;;;;;;6.40;1.20;;;13.10;53.60;;;;;;5073479;28;20029;-65
2022/04/09 09:01:58;;;;;;;4.55;1.17;;;12.90;54.30;;;;;;5049549;28;20021;-66
2022/04/09 09:04:24;;;;;;;4.68;1.42;;;12.90;54.50;;;;;;5053663;28;20450;-66
2022/04/09 09:06:49;;;;;;;4.40;1.25;;;13.00;54.20;;;;;;5037353;28;20027;-66
2022/04/09 09:09:25;;;;;;;5.65;1.40;;;13.30;54.10;;;;;;5052821;28;20118;-67
2022/04/09 09:11:50;;;;;;;7.32;1.80;;;13.70;53.50;;;;;;5052476;28;20040;-66
2022/04/09 09:14:30;;;;;;;5.53;1.50;;;14.10;52.80;;;;;;5051777;28;20021;-66
2022/04/09 09:17:00;;;;;;;5.55;1.40;;;14.60;52.70;;;;;;5055414;28;20040;-66
2022/04/09 09:19:47;;;;;;;5.50;1.40;;;14.50;51.80;;;;;;5059345;28;20121;-66
2022/04/09 09:22:14;;;;;;;7.20;1.60;;;14.70;51.30;;;;;;5043408;28;20044;-66
2022/04/09 09:24:40;;;;;;;6.30;1.15;;;14.60;51.30;;;;;;5037498;28;20041;-66
2022/04/09 09:27:06;;;;;;;4.03;1.08;;;14.40;51.40;;;;;;5033644;28;20453;-66
2022/04/09 09:29:33;;;;;;;6.57;1.30;;;14.10;51.30;;;;;;5042386;28;20030;-66
2022/04/09 09:32:00;;;;;;;5.13;1.40;;;13.80;51.60;;;;;;5032661;28;20052;-66
2022/04/09 09:34:28;;;;;;;6.03;1.42;;;13.80;52.00;;;;;;5035622;28;20058;-66
2022/04/09 09:36:54;;;;;;;5.65;1.60;;;14.00;51.90;;;;;;5032756;28;20037;-66
2022/04/09 09:39:21;;;;;;;6.22;1.45;;;14.00;51.60;;;;;;5039146;28;20391;-66
2022/04/09 09:41:56;;;;;;;6.70;1.58;;;13.80;51.80;;;;;;5036542;28;20084;-67
2022/04/09 09:44:26;;;;;;;7.30;1.45;;;13.60;52.10;;;;;;5032390;28;20052;-66
2022/04/09 09:46:54;;;;;;;5.50;1.42;;;13.70;52.30;;;;;;5032729;28;20473;-66
2022/04/09 09:49:25;;;;;;;5.82;1.58;;;14.00;52.20;;;;;;5036533;28;20116;-66
2022/04/09 09:52:09;;;;;;;4.82;1.13;;;14.40;51.70;;;;;;5034625;28;20396;-66
2022/04/09 09:55:00;;;;;;;5.15;1.60;;;14.60;51.00;;;;;;5035923;28;20371;-66
2022/04/09 09:57:28;;;;;;;5.05;1.17;;;14.50;51.10;;;;;;5036350;28;20353;-66
2022/04/09 09:59:59;;;;;;;4.53;1.30;;;14.20;51.60;;;;;;5037894;28;20064;-67
2022/04/09 10:02:26;;;;;;;5.32;1.52;;;13.70;52.90;;;;;;5034071;28;20061;-67
2022/04/09 10:04:52;;;;;;;6.53;1.58;;;13.10;54.30;;;;;;5037465;28;20017;-67
2022/04/09 10:07:19;;;;;;;6.20;1.48;;;12.60;55.50;;;;;;5037673;28;20361;-67
2022/04/09 10:09:45;;;;;;;4.50;1.00;;;12.10;56.70;;;;;;5038502;28;20068;-66
2022/04/09 10:12:18;;;;;;;3.40;0.82;;;11.60;57.60;;;;;;5035496;28;20049;-66
2022/04/09 10:14:51;;;;;;;1.52;0.70;;;11.30;58.60;;;;;;5043913;28;20404;-66
2022/04/09 10:17:21;;;;;;;3.22;1.25;;;11.00;59.20;;;;;;5043192;28;20028;-66
2022/04/09 10:19:54;;;;;;;4.35;0.98;;;10.70;59.80;;;;;;5035874;28;20029;-66
2022/04/09 10:22:21;;;;;;;2.15;0.77;;;10.70;60.40;;;;;;5035706;28;20108;-66
2022/04/09 10:24:49;;;;;;;3.47;1.00;;;10.60;60.50;;;;;;5036502;28;20084;-66
2022/04/09 10:27:34;;;;;;;3.15;1.00;;;10.60;60.80;;;;;;5036178;28;20037;-66
2022/04/09 10:30:02;;;;;;;3.22;1.00;;;10.50;61.10;;;;;;5033205;28;20106;-66
2022/04/09 10:32:48;;;;;;;3.78;1.08;;;10.50;61.20;;;;;;5032530;28;20128;-66
2022/04/09 10:35:39;;;;;;;2.90;0.82;;;10.50;61.50;;;;;;5039467;28;20041;-66
2022/04/09 10:38:08;;;;;;;3.33;0.88;;;10.60;61.60;;;;;;5032556;28;20033;-66
2022/04/09 10:40:34;;;;;;;2.10;0.95;;;10.70;61.50;;;;;;5035817;28;20030;-66
2022/04/09 10:43:01;;;;;;;4.57;1.20;;;10.90;61.50;;;;;;5046423;28;20120;-66
2022/04/09 10:45:50;;;;;;;5.03;1.08;;;11.00;61.60;;;;;;5045631;28;20055;-67
2022/04/09 10:48:31;;;;;;;4.05;1.10;;;11.30;61.50;;;;;;5035169;28;20068;-66
2022/04/09 10:50:58;;;;;;;2.65;0.80;;;11.80;61.00;;;;;;5029069;28;20327;-66
2022/04/09 10:53:26;;;;;;;3.22;1.00;;;12.10;60.30;;;;;;5034458;28;20438;-66
2022/04/09 10:56:26;;;;;;;2.50;0.85;;;12.10;59.80;;;;;;5033536;28;20057;-67
2022/04/09 10:59:10;;;;;;;3.30;0.90;;;11.90;59.60;;;;;;5040036;28;20037;-67
2022/04/09 11:01:51;;;;;;;3.90;0.88;;;11.80;59.60;;;;;;5033925;28;20460;-69
2022/04/09 11:04:34;;;;;;;4.22;1.08;;;11.80;59.70;;;;;;5044033;28;20048;-68
2022/04/09 11:07:21;;;;;;;9.48;1.92;;;12.00;59.70;;;;;;5055390;28;20028;-69
2022/04/09 11:09:56;;;;;;;6.47;1.42;;;12.40;59.50;;;;;;5060789;28;20057;-66
2022/04/09 11:12:41;;;;;;;4.53;1.00;;;12.50;59.20;;;;;;5069532;28;20361;-66
2022/04/09 11:15:17;;;;;;;3.15;1.20;;;12.40;59.50;;;;;;5058159;28;20361;-67
2022/04/09 11:17:45;;;;;;;4.22;1.42;;;12.20;59.80;;;;;;5075824;28;20043;-67
2022/04/09 11:20:13;;;;;;;4.43;1.02;;;12.00;60.30;;;;;;5071565;28;20032;-68
2022/04/09 11:22:44;;;;;;;4.43;1.00;;;11.70;60.40;;;;;;5061208;28;20045;-68
2022/04/09 11:25:21;;;;;;;1.90;0.70;;;11.40;60.60;;;;;;5057883;28;20112;-67
2022/04/09 11:27:47;;;;;;;4.03;1.00;;;11.10;61.40;;;;;;5058733;28;20031;-67
2022/04/09 11:30:13;;;;;;;5.15;1.30;;;10.80;62.10;;;;;;5056779;28;20107;-67
2022/04/09 11:32:39;;;;;;;4.43;1.30;;;10.70;62.60;;;;;;5072360;28;20451;-66
2022/04/09 11:35:24;;;;;;;4.13;1.00;;;10.60;63.00;;;;;;5057685;28;20050;-67
2022/04/09 11:37:50;;;;;;;3.17;1.00;;;10.60;63.30;;;;;;5058533;28;20041;-67
2022/04/09 11:40:21;;;;;;;6.20;1.60;;;10.50;63.50;;;;;;5058608;28;20025;-67
2022/04/09 11:42:52;;;;;;;4.80;1.35;;;10.50;63.80;;;;;;5069935;28;20031;-67
2022/04/09 11:45:29;;;;;;;3.83;1.20;;;10.60;64.00;;;;;;5072480;28;20025;-66
2022/04/09 11:47:59;;;;;;;3.58;1.13;;;10.70;63.70;;;;;;5058255;28;20040;-66
2022/04/09 11:50:37;;;;;;;5.07;1.63;;;10.90;63.30;;;;;;5056373;28;20474;-66
2022/04/09 11:53:10;;;;;;;2.92;0.90;;;11.00;63.00;;;;;;5072440;28;20031;-67
2022/04/09 11:55:37;;;;;;;5.43;1.33;;;11.30;62.80;;;;;;5068018;28;20029;-66
2022/04/09 11:58:02;;;;;;;6.30;1.30;;;11.50;62.40;;;;;;5070545;28;20453;-65
2022/04/09 12:00:30;;;;;;;3.85;1.20;;;11.80;62.00;;;;;;5057984;28;20032;-65
2022/04/09 12:03:02;;;;;;;3.20;1.25;;;12.00;61.80;;;;;;5061818;28;20021;-65
2022/04/09 12:05:35;;;;;;;7.70;1.35;;;12.30;61.80;;;;;;5056436;28;20035;-65
2022/04/09 12:08:01;;;;;;;4.38;1.20;;;12.40;61.50;;;;;;5055911;28;20029;-63
2022/04/09 12:10:28;;;;;;;7.15;1.52;;;12.50;61.20;;;;;;5057205;28;20055;-65
2022/04/09 12:13:01;;;;;;;6.82;1.73;;;12.60;61.00;;;;;;5065158;28;20032;-67
2022/04/09 12:15:29;;;;;;;5.25;1.10;;;12.70;61.00;;;;;;5063416;28;20040;-67
2022/04/09 12:17:55;;;;;;;4.22;1.45;;;12.50;61.30;;;;;;5051208;28;20036;-69
2022/04/09 12:20:44;;;;;;;3.55;1.40;;;12.20;61.50;;;;;;5057946;28;20037;-69
2022/04/09 12:23:09;;;;;;;3.13;1.02;;;11.80;61.60;;;;;;5064400;28;20017;-68
2022/04/09 12:25:38;;;;;;;3.28;1.00;;;11.20;62.00;;;;;;5054196;28;20083;-69
2022/04/09 12:28:04;;;;;;;3.75;1.00;;;10.70;62.60;;;;;;5061179;28;20036;-69
2022/04/09 12:30:45;;;;;;;1.55;0.63;;;10.30;63.40;;;;;;5055467;28;20029;-68
2022/04/09 12:33:12;;;;;;;4.40;0.85;;;10.10;64.10;;;;;;5053926;28;20045;-69
2022/04/09 12:35:41;;;;;;;4.90;1.30;;;10.00;64.30;;;;;;5036641;28;20065;-68
2022/04/09 12:38:07;;;;;;;3.03;0.82;;;10.00;64.60;;;;;;5056117;28;20107;-68
2022/04/09 12:40:34;;;;;;;5.10;1.10;;;10.10;64.80;;;;;;5055058;28;20045;-69
2022/04/09 12:43:01;;;;;;;4.82;0.90;;;10.30;64.80;;;;;;5055676;28;20033;-68
2022/04/09 12:45:28;;;;;;;4.72;1.20;;;10.60;64.60;;;;;;5065242;28;20468;-68
2022/04/09 12:48:04;;;;;;;4.50;1.08;;;10.80;64.40;;;;;;5052900;28;20048;-68
2022/04/09 12:50:32;;;;;;;4.30;0.90;;;11.00;64.20;;;;;;5044763;28;20061;-68
2022/04/09 12:53:02;;;;;;;5.65;1.17;;;11.10;63.90;;;;;;5045716;28;20032;-69
2022/04/09 12:55:32;;;;;;;2.88;1.00;;;11.00;63.80;;;;;;5043490;28;20057;-70
2022/04/09 12:57:59;;;;;;;3.58;0.95;;;11.00;64.00;;;;;;5037611;28;20044;-70